createdAt,value
2018-02-27T03:38:08.718Z,997.13
2018-02-27T03:39:18.747Z,997.09
2018-02-27T03:40:28.343Z,997.13
2018-02-27T03:41:38.365Z,997.09
2018-02-27T03:42:48.403Z,997.03
2018-02-27T03:43:58.235Z,997.06
2018-02-27T03:45:07.751Z,997.11
2018-02-27T03:46:17.526Z,997.09
2018-02-27T03:47:27.315Z,997.06
2018-02-27T03:48:37.360Z,997.08
2018-02-27T03:49:47.398Z,997.03
2018-02-27T03:50:57.450Z,997.02
2018-02-27T03:52:07.228Z,997.04
2018-02-27T03:53:17.034Z,997
2018-02-27T03:54:27.140Z,996.97
2018-02-27T03:55:36.671Z,996.98
2018-02-27T03:56:46.452Z,996.96
2018-02-27T03:57:56.239Z,996.94
2018-02-27T03:59:06.294Z,996.94
2018-02-27T04:00:16.074Z,996.92
2018-02-27T04:01:26.122Z,996.96
2018-02-27T04:02:35.912Z,996.9
2018-02-27T04:03:45.965Z,996.87
2018-02-27T04:04:56.021Z,996.85
2018-02-27T04:06:06.074Z,996.77
2018-02-27T04:07:15.650Z,996.87
2018-02-27T04:08:25.435Z,996.81
2018-02-27T04:09:35.216Z,996.8
2018-02-27T04:10:44.816Z,996.84
2018-02-27T04:11:54.957Z,996.91
2018-02-27T04:13:04.793Z,996.91
2018-02-27T04:14:14.840Z,996.85
2018-02-27T04:15:24.899Z,996.98
2018-02-27T04:16:34.956Z,996.98
2018-02-27T04:17:44.875Z,996.9
2018-02-27T04:18:54.933Z,996.9
2018-02-27T04:20:04.719Z,997.03
2018-02-27T04:21:14.502Z,996.94
2018-02-27T04:22:24.539Z,997.03
2018-02-27T04:23:34.600Z,996.96
2018-02-27T04:24:44.428Z,997.03
2018-02-27T04:25:54.220Z,996.99
2018-02-27T04:27:03.749Z,997.1
2018-02-27T04:28:13.271Z,997.02
2018-02-27T04:29:22.792Z,996.99
2018-02-27T04:30:32.609Z,997
2018-02-27T04:31:42.397Z,996.96
2018-02-27T04:32:52.170Z,996.92
2018-02-27T04:34:01.951Z,997.01
2018-02-27T04:35:11.486Z,997
2018-02-27T04:36:21.324Z,997.01
2018-02-27T04:37:31.405Z,996.95
2018-02-27T04:38:41.185Z,996.94
2018-02-27T04:39:51.229Z,997
2018-02-27T04:41:01.010Z,996.91
2018-02-27T04:42:11.043Z,996.95
2018-02-27T04:43:21.138Z,996.89
2018-02-27T04:44:30.932Z,996.92
2018-02-27T04:45:40.974Z,996.94
2018-02-27T04:46:50.760Z,996.87
2018-02-27T04:48:00.579Z,996.94
2018-02-27T04:49:10.638Z,996.82
2018-02-27T04:50:20.684Z,996.86
2018-02-27T04:51:30.726Z,996.85
2018-02-27T04:52:40.246Z,996.79
2018-02-27T04:53:50.089Z,996.79
2018-02-27T04:54:59.602Z,996.9
2018-02-27T04:56:09.652Z,996.83
2018-02-27T04:57:19.182Z,996.85
2018-02-27T04:58:29.215Z,996.83
2018-02-27T04:59:39.056Z,996.81
2018-02-27T05:00:49.104Z,996.95
2018-02-27T05:01:59.142Z,996.92
2018-02-27T05:03:09.196Z,996.82
2018-02-27T05:04:18.724Z,996.83
2018-02-27T05:05:28.515Z,996.92
2018-02-27T05:06:38.022Z,996.86
2018-02-27T05:07:47.550Z,996.94
2018-02-27T05:08:57.348Z,996.81
2018-02-27T05:10:06.865Z,996.93
2018-02-27T05:11:16.917Z,996.84
2018-02-27T05:12:27.007Z,996.87
2018-02-27T05:13:36.789Z,996.87
2018-02-27T05:14:46.586Z,996.83
2018-02-27T05:15:56.639Z,996.84
2018-02-27T05:17:06.472Z,996.84
2018-02-27T05:18:15.998Z,996.86
2018-02-27T05:19:25.793Z,996.89
2018-02-27T05:20:35.850Z,996.9
2018-02-27T05:21:45.892Z,996.91
2018-02-27T05:22:55.945Z,996.87
2018-02-27T05:24:05.742Z,996.88
2018-02-27T05:25:15.531Z,996.86
2018-02-27T05:26:25.605Z,996.94
2018-02-27T05:27:34.871Z,996.96
2018-02-27T05:28:44.389Z,997.05
2018-02-27T05:29:54.462Z,996.98
2018-02-27T05:31:04.258Z,996.95
2018-02-27T05:32:14.055Z,997.01
2018-02-27T05:33:24.100Z,996.99
2018-02-27T05:34:34.160Z,996.89
2018-02-27T05:35:44.006Z,997.03
2018-02-27T05:36:54.041Z,996.9
2018-02-27T05:38:03.831Z,996.98
2018-02-27T05:39:13.878Z,996.91
2018-02-27T05:40:23.978Z,996.95
2018-02-27T05:41:33.762Z,996.93
2018-02-27T05:42:43.829Z,996.97
2018-02-27T05:43:53.877Z,997
2018-02-27T05:45:03.403Z,996.97
2018-02-27T05:46:13.503Z,997
2018-02-27T05:47:23.559Z,997
2018-02-27T05:48:33.336Z,996.92
2018-02-27T05:49:43.133Z,997.02
2018-02-27T05:50:53.179Z,996.87
2018-02-27T05:52:02.484Z,996.95
2018-02-27T05:53:12.554Z,996.88
2018-02-27T05:54:22.592Z,996.92
2018-02-27T05:55:32.636Z,996.9
2018-02-27T05:56:42.684Z,996.94
2018-02-27T05:57:52.781Z,996.92
2018-02-27T05:59:02.568Z,996.95
2018-02-27T06:00:12.610Z,996.83
2018-02-27T06:01:22.662Z,996.9
2018-02-27T06:02:32.462Z,996.94
2018-02-27T06:03:42.624Z,997
2018-02-27T06:04:52.668Z,996.93
2018-02-27T06:06:02.915Z,996.96
2018-02-27T06:07:12.956Z,996.96
2018-02-27T06:08:22.477Z,996.94
2018-02-27T06:09:31.984Z,996.9
2018-02-27T06:10:42.111Z,996.95
2018-02-27T06:11:51.625Z,996.91
2018-02-27T06:13:01.174Z,996.97
2018-02-27T06:14:11.100Z,996.97
2018-02-27T06:15:20.933Z,997.05
2018-02-27T06:16:30.977Z,996.99
2018-02-27T06:17:41.041Z,997.02
2018-02-27T06:18:51.102Z,996.99
2018-02-27T06:20:00.882Z,997
2018-02-27T06:21:10.961Z,997
2018-02-27T06:22:20.975Z,997.04
2018-02-27T06:23:31.039Z,996.99
2018-02-27T06:24:41.093Z,997.01
2018-02-27T06:25:50.881Z,997.03
2018-02-27T06:27:00.702Z,997.07
2018-02-27T06:28:10.767Z,997.09
2018-02-27T06:29:20.818Z,997.01
2018-02-27T06:30:30.863Z,997.02
2018-02-27T06:31:40.143Z,997
2018-02-27T06:32:49.984Z,997
2018-02-27T06:33:59.771Z,997.11
2018-02-27T06:35:09.583Z,997.05
2018-02-27T06:36:19.101Z,997.14
2018-02-27T06:37:29.133Z,997.17
2018-02-27T06:38:38.964Z,997.1
2018-02-27T06:39:48.478Z,997.06
2018-02-27T06:40:58.511Z,997.02
2018-02-27T06:42:07.783Z,997.03
2018-02-27T06:43:17.566Z,997.07
2018-02-27T06:44:27.696Z,997.03
2018-02-27T06:45:37.740Z,997.07
2018-02-27T06:46:47.515Z,997.06
2018-02-27T06:47:57.565Z,996.97
2018-02-27T06:49:07.414Z,996.98
2018-02-27T06:50:17.221Z,997.04
2018-02-27T06:51:27.258Z,996.98
2018-02-27T06:52:37.319Z,996.98
2018-02-27T06:53:47.421Z,996.97
2018-02-27T06:54:57.221Z,997.01
2018-02-27T06:56:06.757Z,997.03
2018-02-27T06:57:16.536Z,997.05
2018-02-27T06:58:26.054Z,996.99
2018-02-27T06:59:36.114Z,997.02
2018-02-27T07:00:46.157Z,997.23
2018-02-27T07:01:55.933Z,997.07
2018-02-27T07:03:05.180Z,997.08
2018-02-27T07:04:14.958Z,997.04
2018-02-27T07:05:24.996Z,997.08
2018-02-27T07:06:34.512Z,997.09
2018-02-27T07:07:44.379Z,997.09
2018-02-27T07:08:54.431Z,997.14
2018-02-27T07:10:03.955Z,997.11
2018-02-27T07:11:14.002Z,997.23
2018-02-27T07:12:24.064Z,997.29
2018-02-27T07:13:33.645Z,997.21
2018-02-27T07:14:43.694Z,997.21
2018-02-27T07:15:53.737Z,997.16
2018-02-27T07:17:03.273Z,997.27
2018-02-27T07:18:13.319Z,997.26
2018-02-27T07:19:22.907Z,997.19
2018-02-27T07:20:32.971Z,997.18
2018-02-27T07:21:43.053Z,997.27
2018-02-27T07:22:52.841Z,997.25
2018-02-27T07:24:02.613Z,997.19
2018-02-27T07:25:12.678Z,997.17
2018-02-27T07:26:22.730Z,997.21
2018-02-27T07:27:32.232Z,997.18
2018-02-27T07:28:42.279Z,997.18
2018-02-27T07:29:52.065Z,997.16
2018-02-27T07:31:02.144Z,997.15
2018-02-27T07:32:11.935Z,997.25
2018-02-27T07:33:21.720Z,997.14
2018-02-27T07:34:31.516Z,997.24
2018-02-27T07:35:41.301Z,997.18
2018-02-27T07:36:51.362Z,997.21
2018-02-27T07:38:01.156Z,997.21
2018-02-27T07:39:10.954Z,997.21
2018-02-27T07:40:21.252Z,997.22
2018-02-27T07:41:30.770Z,997.19
2018-02-27T07:42:40.810Z,997.2
2018-02-27T07:43:50.594Z,997.24
2018-02-27T07:45:00.119Z,997.24
2018-02-27T07:46:09.662Z,997.12
2018-02-27T07:47:19.761Z,997.15
2018-02-27T07:48:29.919Z,997.16
2018-02-27T07:49:39.721Z,997.12
2018-02-27T07:50:49.513Z,997.08
2018-02-27T07:51:59.288Z,997.13
2018-02-27T07:53:09.089Z,997.14
2018-02-27T07:54:19.218Z,997.17
2018-02-27T07:55:29.021Z,997.11
2018-02-27T07:56:39.077Z,997.12
2018-02-27T07:57:48.868Z,997.07
2018-02-27T07:58:58.920Z,997.16
2018-02-27T08:00:08.701Z,997.31
2018-02-27T08:01:18.744Z,997.16
2018-02-27T08:02:28.550Z,997.16
2018-02-27T08:03:38.068Z,997.15
2018-02-27T08:04:47.858Z,997.2
2018-02-27T08:05:57.921Z,997.24
2018-02-27T08:07:07.954Z,997.2
2018-02-27T08:08:17.733Z,997.21
2018-02-27T08:09:27.780Z,997.23
2018-02-27T08:10:37.834Z,997.24
2018-02-27T08:11:47.891Z,997.15
2018-02-27T08:12:57.934Z,997.18
2018-02-27T08:14:07.983Z,997.06
2018-02-27T08:15:18.024Z,997.13
2018-02-27T08:16:28.081Z,997.27
2018-02-27T08:17:38.191Z,997.22
2018-02-27T08:18:47.724Z,997.26
2018-02-27T08:19:57.519Z,997.14
2018-02-27T08:21:07.625Z,997.17
2018-02-27T08:22:17.158Z,997.21
2018-02-27T08:23:26.997Z,997.29
2018-02-27T08:24:37.067Z,997.26
2018-02-27T08:25:47.109Z,997.24
2018-02-27T08:26:57.162Z,997.21
2018-02-27T08:28:07.231Z,997.21
2018-02-27T08:29:17.035Z,997.19
2018-02-27T08:30:26.815Z,997.16
2018-02-27T08:31:36.599Z,997.26
2018-02-27T08:32:46.647Z,997.15
2018-02-27T08:33:55.906Z,997.07
2018-02-27T08:35:05.738Z,997.23
2018-02-27T08:36:15.248Z,997.2
2018-02-27T08:37:25.035Z,997.22
2018-02-27T08:38:34.860Z,997.23
2018-02-27T08:39:44.901Z,997.19
2018-02-27T08:40:54.738Z,997.21
2018-02-27T08:42:04.788Z,997.16
2018-02-27T08:43:14.843Z,997.16
2018-02-27T08:44:24.100Z,997.11
2018-02-27T08:45:34.158Z,997.27
2018-02-27T08:46:44.031Z,997.21
2018-02-27T08:47:54.100Z,997.16
2018-02-27T08:49:04.151Z,997.2
2018-02-27T08:50:13.943Z,997.18
2018-02-27T08:51:23.736Z,997.16
2018-02-27T08:52:33.780Z,997.21
2018-02-27T08:53:43.557Z,997.15
2018-02-27T08:54:53.614Z,997.21
2018-02-27T08:56:03.417Z,997.24
2018-02-27T08:57:13.529Z,997.22
2018-02-27T08:58:23.324Z,997.18
2018-02-27T08:59:33.381Z,997.21
2018-02-27T09:00:43.449Z,997.26
2018-02-27T09:01:53.506Z,997.21
2018-02-27T09:03:03.291Z,997.17
2018-02-27T09:04:13.068Z,997.17
2018-02-27T09:05:22.863Z,997.18
2018-02-27T09:06:32.666Z,997.04
2018-02-27T09:07:42.714Z,997.2
2018-02-27T09:08:52.497Z,997.15
2018-02-27T09:10:02.341Z,997.09
2018-02-27T09:11:11.859Z,997.21
2018-02-27T09:12:21.640Z,997.16
2018-02-27T09:13:31.460Z,997.2
2018-02-27T09:14:41.328Z,997.14
2018-02-27T09:15:51.548Z,997.08
2018-02-27T09:17:01.612Z,997.08
2018-02-27T09:18:11.149Z,997.15
2018-02-27T09:19:20.967Z,997.22
2018-02-27T09:20:30.566Z,997.13
2018-02-27T09:21:40.420Z,997.14
2018-02-27T09:22:50.466Z,997.14
2018-02-27T09:23:59.990Z,997.06
2018-02-27T09:25:09.784Z,997.08
2018-02-27T09:26:19.566Z,997.15
2018-02-27T09:27:29.379Z,997.09
2018-02-27T09:28:39.440Z,997.03
2018-02-27T09:29:49.498Z,997.05
2018-02-27T09:30:59.275Z,997.03
2018-02-27T09:32:09.278Z,997.15
2018-02-27T09:33:19.344Z,997.1
2018-02-27T09:34:29.129Z,996.99
2018-02-27T09:35:38.886Z,996.97
2018-02-27T09:36:48.877Z,997.03
2018-02-27T09:37:58.359Z,997.02
2018-02-27T09:39:08.132Z,996.93
2018-02-27T09:40:17.606Z,996.98
2018-02-27T09:41:27.096Z,996.9
2018-02-27T09:42:36.547Z,996.88
2018-02-27T09:43:46.542Z,996.9
2018-02-27T09:44:56.268Z,996.98
2018-02-27T09:46:06.254Z,996.93
2018-02-27T09:47:16.007Z,996.95
2018-02-27T09:48:25.746Z,996.97
2018-02-27T09:49:35.482Z,997.02
2018-02-27T09:50:45.008Z,997.04
2018-02-27T09:51:54.729Z,997
2018-02-27T09:53:04.192Z,996.97
2018-02-27T09:54:14.188Z,996.99
2018-02-27T09:55:24.174Z,996.95
2018-02-27T09:56:33.949Z,997
2018-02-27T09:57:43.413Z,996.99
2018-02-27T09:58:53.378Z,996.94
2018-02-27T10:00:03.123Z,996.95
2018-02-27T10:01:12.358Z,996.96
2018-02-27T10:02:21.870Z,996.96
2018-02-27T10:03:31.890Z,996.88
2018-02-27T10:04:41.875Z,997.04
2018-02-27T10:05:51.601Z,996.94
2018-02-27T10:07:01.351Z,996.94
2018-02-27T10:08:11.401Z,996.92
2018-02-27T10:09:21.387Z,996.94
2018-02-27T10:10:30.857Z,996.98
2018-02-27T10:11:40.855Z,997.07
2018-02-27T10:12:50.836Z,996.95
2018-02-27T10:14:00.913Z,996.94
2018-02-27T10:15:10.671Z,996.89
2018-02-27T10:16:20.395Z,996.86
2018-02-27T10:17:30.139Z,996.9
2018-02-27T10:18:39.872Z,996.9
2018-02-27T10:19:49.653Z,996.93
2018-02-27T10:20:59.648Z,996.93
2018-02-27T10:22:09.656Z,996.94
2018-02-27T10:23:19.746Z,996.92
2018-02-27T10:24:29.733Z,996.91
2018-02-27T10:25:39.595Z,996.82
2018-02-27T10:26:49.088Z,997.02
2018-02-27T10:27:59.095Z,996.85
2018-02-27T10:29:09.097Z,996.8
2018-02-27T10:30:18.915Z,996.92
2018-02-27T10:31:28.430Z,996.82
2018-02-27T10:32:38.255Z,996.75
2018-02-27T10:33:47.987Z,996.77
2018-02-27T10:34:57.464Z,996.75
2018-02-27T10:36:07.456Z,996.78
2018-02-27T10:37:17.493Z,996.81
2018-02-27T10:38:26.977Z,996.75
2018-02-27T10:39:36.723Z,996.88
2018-02-27T10:40:46.722Z,996.91
2018-02-27T10:41:56.449Z,996.8
2018-02-27T10:43:06.487Z,996.88
2018-02-27T10:44:16.234Z,996.7
2018-02-27T10:45:26.274Z,996.73
2018-02-27T10:46:36.288Z,996.74
2018-02-27T10:47:46.287Z,996.84
2018-02-27T10:48:55.817Z,996.72
2018-02-27T10:50:05.556Z,996.69
2018-02-27T10:51:15.296Z,996.73
2018-02-27T10:52:25.303Z,996.73
2018-02-27T10:53:35.305Z,996.71
2018-02-27T10:54:45.347Z,996.75
2018-02-27T10:55:54.913Z,996.69
2018-02-27T10:57:04.929Z,996.7
2018-02-27T10:58:15.056Z,996.66
2018-02-27T10:59:24.792Z,996.71
2018-02-27T11:00:34.828Z,996.79
2018-02-27T11:01:44.826Z,996.76
2018-02-27T11:02:54.565Z,996.76
2018-02-27T11:04:04.569Z,996.81
2018-02-27T11:05:14.057Z,996.76
2018-02-27T11:06:24.114Z,996.73
2018-02-27T11:07:33.866Z,996.73
2018-02-27T11:08:43.599Z,996.84
2018-02-27T11:09:53.087Z,996.83
2018-02-27T11:11:03.071Z,996.72
2018-02-27T11:12:12.627Z,996.79
2018-02-27T11:13:22.625Z,996.84
2018-02-27T11:14:32.360Z,996.74
2018-02-27T11:15:42.379Z,996.68
2018-02-27T11:16:51.611Z,996.72
2018-02-27T11:18:01.426Z,996.71
2018-02-27T11:19:11.173Z,996.78
2018-02-27T11:20:20.712Z,996.68
2018-02-27T11:21:30.722Z,996.78
2018-02-27T11:22:40.735Z,996.72
2018-02-27T11:23:50.778Z,996.65
2018-02-27T11:25:00.784Z,996.74
2018-02-27T11:26:10.815Z,996.71
2018-02-27T11:27:20.799Z,996.79
2018-02-27T11:28:30.025Z,996.87
2018-02-27T11:29:39.767Z,996.86
2018-02-27T11:30:49.742Z,996.83
2018-02-27T11:31:59.485Z,996.84
2018-02-27T11:33:09.481Z,996.85
2018-02-27T11:34:19.219Z,996.76
2018-02-27T11:35:28.729Z,996.77
2018-02-27T11:36:38.727Z,996.74
2018-02-27T11:37:48.724Z,996.78
2018-02-27T11:38:57.946Z,996.76
2018-02-27T11:40:07.962Z,996.79
2018-02-27T11:41:17.741Z,996.73
2018-02-27T11:42:27.911Z,996.75
2018-02-27T11:43:37.414Z,996.87
2018-02-27T11:44:47.423Z,996.81
2018-02-27T11:45:56.898Z,996.79
2018-02-27T11:47:06.888Z,996.83
2018-02-27T11:48:16.375Z,996.82
2018-02-27T11:49:25.866Z,996.77
2018-02-27T11:50:35.587Z,996.71
2018-02-27T11:51:45.582Z,996.72
2018-02-27T11:52:55.625Z,996.61
2018-02-27T11:54:05.104Z,996.69
2018-02-27T11:55:14.849Z,996.67
2018-02-27T11:56:24.887Z,996.69
2018-02-27T11:57:34.972Z,996.78
2018-02-27T11:58:44.443Z,996.75
2018-02-27T11:59:54.179Z,996.79
2018-02-27T12:01:03.947Z,996.77
2018-02-27T12:02:13.932Z,996.78
2018-02-27T12:03:24.129Z,996.65
2018-02-27T12:04:34.180Z,996.7
2018-02-27T12:05:43.911Z,996.7
2018-02-27T12:06:53.897Z,996.73
2018-02-27T12:08:03.888Z,996.68
2018-02-27T12:09:13.659Z,996.71
2018-02-27T12:10:23.655Z,996.66
2018-02-27T12:11:33.145Z,996.66
2018-02-27T12:12:43.144Z,996.6
2018-02-27T12:13:52.619Z,996.66
2018-02-27T12:15:02.377Z,996.6
2018-02-27T12:16:12.123Z,996.64
2018-02-27T12:17:22.130Z,996.67
2018-02-27T12:18:32.130Z,996.73
2018-02-27T12:19:41.878Z,996.66
2018-02-27T12:20:51.610Z,996.65
2018-02-27T12:22:01.406Z,996.63
2018-02-27T12:23:11.147Z,996.58
2018-02-27T12:24:21.142Z,996.6
2018-02-27T12:25:31.145Z,996.6
2018-02-27T12:26:40.373Z,996.58
2018-02-27T12:27:50.156Z,996.57
2018-02-27T12:29:00.168Z,996.55
2018-02-27T12:30:10.188Z,996.58
2018-02-27T12:31:19.819Z,996.55
2018-02-27T12:32:29.288Z,996.56
2018-02-27T12:33:39.353Z,996.55
2018-02-27T12:34:48.846Z,996.53
2018-02-27T12:35:58.843Z,996.52
2018-02-27T12:37:08.573Z,996.46
2018-02-27T12:38:18.585Z,996.5
2018-02-27T12:39:28.055Z,996.41
2018-02-27T12:40:38.035Z,996.52
2018-02-27T12:41:47.768Z,996.42
2018-02-27T12:42:57.582Z,996.4
2018-02-27T12:44:07.300Z,996.41
2018-02-27T12:45:16.785Z,996.46
2018-02-27T12:46:26.816Z,996.49
2018-02-27T12:47:36.574Z,996.44
2018-02-27T12:48:46.562Z,996.55
2018-02-27T12:49:56.302Z,996.54
2018-02-27T12:51:06.099Z,996.54
2018-02-27T12:52:16.091Z,996.52
2018-02-27T12:53:26.090Z,996.52
2018-02-27T12:54:36.100Z,996.45
2018-02-27T12:55:46.086Z,996.48
2018-02-27T12:56:55.357Z,996.46
2018-02-27T12:58:05.096Z,996.44
2018-02-27T12:59:15.107Z,996.45
2018-02-27T13:00:25.099Z,996.41
2018-02-27T13:01:34.306Z,996.46
2018-02-27T13:02:43.881Z,996.42
2018-02-27T13:03:53.900Z,996.42
2018-02-27T13:05:03.623Z,996.41
2018-02-27T13:06:13.634Z,996.47
2018-02-27T13:07:23.125Z,996.32
2018-02-27T13:08:32.850Z,996.41
2018-02-27T13:09:42.321Z,996.37
2018-02-27T13:10:52.074Z,996.45
2018-02-27T13:12:01.822Z,996.44
2018-02-27T13:13:11.838Z,996.43
2018-02-27T13:14:21.577Z,996.39
2018-02-27T13:15:31.064Z,996.48
2018-02-27T13:16:40.870Z,996.4
2018-02-27T13:17:50.899Z,996.41
2018-02-27T13:19:00.967Z,996.43
2018-02-27T13:20:10.723Z,996.52
2018-02-27T13:21:20.704Z,996.49
2018-02-27T13:22:30.477Z,996.48
2018-02-27T13:23:40.200Z,996.47
2018-02-27T13:24:50.198Z,996.54
2018-02-27T13:26:00.224Z,996.44
2018-02-27T13:27:10.249Z,996.42
2018-02-27T13:28:20.308Z,996.49
2018-02-27T13:29:30.019Z,996.44
2018-02-27T13:30:39.759Z,996.43
2018-02-27T13:31:49.546Z,996.36
2018-02-27T13:32:59.285Z,996.43
2018-02-27T13:34:08.828Z,996.37
2018-02-27T13:35:18.849Z,996.39
2018-02-27T13:36:28.859Z,996.37
2018-02-27T13:37:38.857Z,996.33
2018-02-27T13:38:48.932Z,996.5
2018-02-27T13:39:58.979Z,996.45
2018-02-27T13:41:08.991Z,996.44
2018-02-27T13:42:18.732Z,996.37
2018-02-27T13:43:28.463Z,996.46
2018-02-27T13:44:38.219Z,996.4
2018-02-27T13:45:48.212Z,996.41
2018-02-27T13:46:57.958Z,996.43
2018-02-27T13:48:07.445Z,996.45
2018-02-27T13:49:24.842Z,996.48
2018-02-27T13:50:35.226Z,996.45
2018-02-27T13:51:45.001Z,996.49
2018-02-27T13:52:54.996Z,996.54
2018-02-27T13:54:04.955Z,996.43
2018-02-27T13:55:14.706Z,996.46
2018-02-27T13:56:24.421Z,996.41
2018-02-27T13:57:34.415Z,996.34
2018-02-27T13:58:44.398Z,996.37
2018-02-27T13:59:54.138Z,996.43
2018-02-27T14:01:04.145Z,996.38
2018-02-27T14:02:13.876Z,996.39
2018-02-27T14:03:23.909Z,996.45
2018-02-27T14:04:33.980Z,996.5
2018-02-27T14:05:43.972Z,996.5
2018-02-27T14:06:53.965Z,996.49
2018-02-27T14:08:03.201Z,996.54
2018-02-27T14:09:12.738Z,996.39
2018-02-27T14:10:22.481Z,996.44
2018-02-27T14:11:32.496Z,996.44
2018-02-27T14:12:42.487Z,996.4
2018-02-27T14:13:52.250Z,996.39
2018-02-27T14:15:01.824Z,996.4
2018-02-27T14:16:11.568Z,996.49
2018-02-27T14:17:21.572Z,996.46
2018-02-27T14:18:31.056Z,996.42
2018-02-27T14:19:40.815Z,996.62
2018-02-27T14:20:50.641Z,996.52
2018-02-27T14:22:00.389Z,996.43
2018-02-27T14:23:10.134Z,996.44
2018-02-27T14:24:19.620Z,996.41
2018-02-27T14:25:29.087Z,996.46
2018-02-27T14:26:38.573Z,996.49
2018-02-27T14:27:48.543Z,996.42
2018-02-27T14:28:58.544Z,996.48
2018-02-27T14:30:08.279Z,996.46
2018-02-27T14:31:18.286Z,996.48
2018-02-27T14:32:28.302Z,996.43
2018-02-27T14:33:38.078Z,996.46
2018-02-27T14:34:48.091Z,996.42
2018-02-27T14:35:57.842Z,996.46
2018-02-27T14:37:07.588Z,996.41
2018-02-27T14:38:17.663Z,996.47
2018-02-27T14:39:27.388Z,996.38
2018-02-27T14:40:37.149Z,996.45
2018-02-27T14:41:47.117Z,996.44
2018-02-27T14:42:56.842Z,996.45
2018-02-27T14:44:06.894Z,996.44
2018-02-27T14:45:16.902Z,996.43
2018-02-27T14:46:26.631Z,996.49
2018-02-27T14:47:36.148Z,996.48
2018-02-27T14:48:45.904Z,996.52
2018-02-27T14:49:55.644Z,996.54
2018-02-27T14:51:05.671Z,996.53
2018-02-27T14:52:15.644Z,996.54
2018-02-27T14:53:25.634Z,996.53
2018-02-27T14:54:35.632Z,996.62
2018-02-27T14:55:45.613Z,996.61
2018-02-27T14:56:55.606Z,996.5
2018-02-27T14:58:05.555Z,996.57
2018-02-27T14:59:15.292Z,996.52
2018-02-27T15:00:25.255Z,996.62
2018-02-27T15:01:35.041Z,996.54
2018-02-27T15:02:45.053Z,996.55
2018-02-27T15:03:54.836Z,996.6
2018-02-27T15:05:04.862Z,996.55
2018-02-27T15:06:14.605Z,996.49
2018-02-27T15:07:24.597Z,996.62
2018-02-27T15:08:34.614Z,996.74
2018-02-27T15:09:44.653Z,996.68
2018-02-27T15:10:54.387Z,996.66
2018-02-27T15:12:04.395Z,996.66
2018-02-27T15:13:14.396Z,996.77
2018-02-27T15:14:24.169Z,996.74
2018-02-27T15:15:34.260Z,996.7
2018-02-27T15:16:44.458Z,996.72
2018-02-27T15:17:54.463Z,996.68
2018-02-27T15:19:04.449Z,996.65
2018-02-27T15:20:14.182Z,996.69
2018-02-27T15:21:23.668Z,996.63
2018-02-27T15:22:33.403Z,996.7
2018-02-27T15:23:43.391Z,996.7
2018-02-27T15:24:53.392Z,996.73
2018-02-27T15:26:02.845Z,996.7
2018-02-27T15:27:12.937Z,996.74
2018-02-27T15:28:22.689Z,996.69
2018-02-27T15:29:32.433Z,996.81
2018-02-27T15:30:42.428Z,996.8
2018-02-27T15:31:52.420Z,996.75
2018-02-27T15:33:02.166Z,996.74
2018-02-27T15:34:12.165Z,996.78
2018-02-27T15:35:22.153Z,996.73
2018-02-27T15:36:31.663Z,996.75
2018-02-27T15:37:41.706Z,996.75
2018-02-27T15:38:51.454Z,996.69
2018-02-27T15:40:01.586Z,996.68
2018-02-27T15:41:11.642Z,996.7
2018-02-27T15:42:21.392Z,996.74
2018-02-27T15:43:31.388Z,996.73
2018-02-27T15:44:41.383Z,996.69
2018-02-27T15:45:51.365Z,996.79
2018-02-27T15:47:01.084Z,996.8
2018-02-27T15:48:10.816Z,996.83
2018-02-27T15:49:20.705Z,996.82
2018-02-27T15:50:32.301Z,996.78
2018-02-27T15:51:45.279Z,996.85
2018-02-27T15:52:57.576Z,996.83
2018-02-27T15:54:09.119Z,996.76
2018-02-27T15:55:21.508Z,996.92
2018-02-27T15:56:33.876Z,996.82
2018-02-27T15:57:44.981Z,996.85
2018-02-27T15:58:56.869Z,997.01
2018-02-27T16:00:08.941Z,996.95
2018-02-27T16:01:21.238Z,996.9
2018-02-27T16:02:32.982Z,996.86
2018-02-27T16:03:43.870Z,996.83
2018-02-27T16:04:55.199Z,996.85
2018-02-27T16:06:06.863Z,996.82
2018-02-27T16:07:18.977Z,996.86
2018-02-27T16:08:32.488Z,996.88
2018-02-27T16:09:45.917Z,996.88
2018-02-27T16:10:58.831Z,996.93
2018-02-27T16:12:12.066Z,996.96
2018-02-27T16:13:24.607Z,996.98
2018-02-27T16:14:37.268Z,996.97
2018-02-27T16:15:49.991Z,996.97
2018-02-27T16:17:02.974Z,996.92
2018-02-27T16:18:14.560Z,997.17
2018-02-27T16:19:27.032Z,997.08
2018-02-27T16:20:38.874Z,997.04
2018-02-27T16:21:50.299Z,997.1
2018-02-27T16:23:02.352Z,997.1
2018-02-27T16:24:14.110Z,997.06
2018-02-27T16:25:27.221Z,997.14
2018-02-27T16:26:38.755Z,997.08
2018-02-27T16:27:48.561Z,997.1
2018-02-27T16:28:58.315Z,997.13
2018-02-27T16:30:08.352Z,997.12
2018-02-27T16:31:17.585Z,997.21
2018-02-27T16:32:27.573Z,997.12
2018-02-27T16:33:37.110Z,997.14
2018-02-27T16:34:47.115Z,997.09
2018-02-27T16:35:57.118Z,997.14
2018-02-27T16:37:06.835Z,997.21
2018-02-27T16:38:16.603Z,997.24
2018-02-27T16:39:26.674Z,997.21
2018-02-27T16:40:36.680Z,997.17
2018-02-27T16:41:46.703Z,997.23
2018-02-27T16:42:56.444Z,997.27
2018-02-27T16:44:06.231Z,997.24
2018-02-27T16:45:16.045Z,997.21
2018-02-27T16:46:25.764Z,997.24
2018-02-27T16:47:35.512Z,997.23
2018-02-27T16:48:45.247Z,997.26
2018-02-27T16:49:55.290Z,997.33
2018-02-27T16:51:05.340Z,997.32
2018-02-27T16:52:15.322Z,997.37
2018-02-27T16:53:25.397Z,997.38
2018-02-27T16:54:35.141Z,997.42
2018-02-27T16:55:45.123Z,997.45
2018-02-27T16:56:55.130Z,997.47
2018-02-27T16:58:04.873Z,997.48
2018-02-27T16:59:14.866Z,997.48
2018-02-27T17:00:24.861Z,997.51
2018-02-27T17:01:34.858Z,997.44
2018-02-27T17:02:44.903Z,997.54
2018-02-27T17:03:54.735Z,997.5
2018-02-27T17:05:04.579Z,997.48
2018-02-27T17:06:14.656Z,997.56
2018-02-27T17:07:24.720Z,997.49
2018-02-27T17:08:34.527Z,997.47
2018-02-27T17:09:44.590Z,997.56
2018-02-27T17:10:54.371Z,997.59
2018-02-27T17:12:04.450Z,997.59
2018-02-27T17:13:14.601Z,997.63
2018-02-27T17:14:24.671Z,997.65
2018-02-27T17:15:34.458Z,997.66
2018-02-27T17:16:44.513Z,997.69
2018-02-27T17:17:54.324Z,997.6
2018-02-27T17:19:04.411Z,997.62
2018-02-27T17:20:14.520Z,997.61
2018-02-27T17:21:24.586Z,997.6
2018-02-27T17:22:34.416Z,997.63
2018-02-27T17:23:44.626Z,997.6
2018-02-27T17:24:54.433Z,997.64
2018-02-27T17:26:04.507Z,997.64
2018-02-27T17:27:14.587Z,997.64
2018-02-27T17:28:24.398Z,997.67
2018-02-27T17:29:34.185Z,997.62
2018-02-27T17:30:44.248Z,997.66
2018-02-27T17:31:54.086Z,997.72
2018-02-27T17:33:04.176Z,997.66
2018-02-27T17:34:14.215Z,997.63
2018-02-27T17:35:23.766Z,997.77
2018-02-27T17:36:33.824Z,997.72
2018-02-27T17:37:43.642Z,997.75
2018-02-27T17:38:53.695Z,997.73
2018-02-27T17:40:03.732Z,997.76
2018-02-27T17:41:13.820Z,997.75
2018-02-27T17:42:23.905Z,997.72
2018-02-27T17:43:33.755Z,997.81
2018-02-27T17:44:43.755Z,997.75
2018-02-27T17:45:53.555Z,997.79
2018-02-27T17:47:03.621Z,997.8
2018-02-27T17:48:13.706Z,997.81
2018-02-27T17:49:23.274Z,997.79
2018-02-27T17:50:33.076Z,997.8
2018-02-27T17:51:43.130Z,997.78
2018-02-27T17:52:53.205Z,997.83
2018-02-27T17:54:03.263Z,997.83
2018-02-27T17:55:12.848Z,997.84
2018-02-27T17:56:22.940Z,997.8
2018-02-27T17:57:33.003Z,997.8
2018-02-27T17:58:43.078Z,997.76
2018-02-27T17:59:53.180Z,997.76
2018-02-27T18:01:02.737Z,997.74
2018-02-27T18:02:12.541Z,997.8
2018-02-27T18:03:22.331Z,997.77
2018-02-27T18:04:32.410Z,997.77
2018-02-27T18:05:42.219Z,997.71
2018-02-27T18:06:51.802Z,997.71
2018-02-27T18:08:01.341Z,997.74
2018-02-27T18:09:10.884Z,997.74
2018-02-27T18:10:20.966Z,997.66
2018-02-27T18:11:30.609Z,997.68
2018-02-27T18:12:40.711Z,997.67
2018-02-27T18:13:50.787Z,997.71